Time;durP1;ratioP1;P1;durP2;ratioP2;P2;SDS_P1;SDS_P2;PMS_P1;PMS_P2;Temp;Humidity;BMP_temperature;BMP_pressure;BME280_temperature;BME280_humidity;BME280_pressure;Samples;Min_cycle;Max_cycle;Signal;HPM_P1;HPM_P2
2023/01/16 00:01:44;;;;;;;1.98;0.50;;;19.40;60.50;;;;;;5071187;28;20109;-64
2023/01/16 00:04:10;;;;;;;3.97;0.90;;;19.30;60.50;;;;;;5069980;28;20486;-64
2023/01/16 00:06:35;;;;;;;1.67;0.40;;;19.30;60.50;;;;;;5072079;28;20037;-64
2023/01/16 00:09:02;;;;;;;1.10;0.35;;;19.30;60.50;;;;;;5070945;28;20067;-66
2023/01/16 00:11:28;;;;;;;1.70;0.40;;;19.30;60.50;;;;;;5071612;28;20049;-64
2023/01/16 00:13:53;;;;;;;1.00;0.40;;;19.30;60.50;;;;;;5071241;28;20053;-64
2023/01/16 00:16:20;;;;;;;3.15;0.47;;;19.30;60.50;;;;;;5070855;28;20045;-64
2023/01/16 00:18:46;;;;;;;1.85;0.40;;;19.30;60.50;;;;;;5071624;28;20048;-64
2023/01/16 00:21:12;;;;;;;1.10;0.43;;;19.30;60.50;;;;;;5070766;28;20036;-64
2023/01/16 00:23:37;;;;;;;0.93;0.30;;;19.30;60.50;;;;;;5070840;28;20132;-64
2023/01/16 00:26:08;;;;;;;2.05;0.32;;;19.30;60.50;;;;;;5071451;28;20039;-64
2023/01/16 00:28:33;;;;;;;1.38;0.40;;;19.20;60.50;;;;;;5071284;28;20400;-64
2023/01/16 00:30:59;;;;;;;2.15;0.55;;;19.30;60.50;;;;;;5069898;28;20032;-64
2023/01/16 00:33:24;;;;;;;1.08;0.40;;;19.20;60.50;;;;;;5050674;28;20041;-64
2023/01/16 00:35:51;;;;;;;1.58;0.32;;;19.20;60.50;;;;;;5051310;28;20049;-64
2023/01/16 00:38:16;;;;;;;2.75;0.40;;;19.20;60.40;;;;;;5052566;28;20036;-64
2023/01/16 00:40:42;;;;;;;1.92;0.50;;;19.20;60.50;;;;;;5052935;28;20106;-64
2023/01/16 00:43:07;;;;;;;1.35;0.38;;;19.20;60.50;;;;;;5053671;28;20139;-64
2023/01/16 00:45:33;;;;;;;0.57;0.30;;;19.20;60.40;;;;;;5042740;28;20040;-64
2023/01/16 00:47:58;;;;;;;2.25;0.50;;;19.20;60.40;;;;;;5073162;28;20045;-64
2023/01/16 00:50:24;;;;;;;1.63;0.45;;;19.20;60.40;;;;;;5073538;28;20493;-64
2023/01/16 00:52:50;;;;;;;1.35;0.30;;;19.20;60.40;;;;;;5074505;28;20075;-64
2023/01/16 00:55:15;;;;;;;2.90;0.70;;;19.10;60.40;;;;;;5074162;28;20139;-64
2023/01/16 00:57:41;;;;;;;2.25;0.50;;;19.10;60.30;;;;;;5073485;28;20496;-64
2023/01/16 01:00:08;;;;;;;1.75;0.50;;;19.10;60.30;;;;;;5074280;28;20072;-64
2023/01/16 01:02:33;;;;;;;1.35;0.50;;;19.10;60.40;;;;;;5074778;28;20373;-64
2023/01/16 01:04:59;;;;;;;1.90;0.38;;;19.10;60.30;;;;;;5073155;28;20472;-64
2023/01/16 01:07:24;;;;;;;1.83;0.50;;;19.10;60.40;;;;;;5074602;28;20048;-64
2023/01/16 01:09:50;;;;;;;2.80;0.60;;;19.10;60.40;;;;;;5074396;28;20045;-64
2023/01/16 01:12:15;;;;;;;2.15;0.85;;;19.10;60.40;;;;;;5073264;28;20036;-64
2023/01/16 01:14:41;;;;;;;1.30;0.60;;;19.10;61.00;;;;;;5073988;28;20573;-64
2023/01/16 01:17:07;;;;;;;1.85;0.40;;;19.10;60.40;;;;;;5074166;28;20051;-65
2023/01/16 01:19:32;;;;;;;2.10;0.40;;;19.10;61.00;;;;;;5073287;28;20041;-64
2023/01/16 01:21:58;;;;;;;1.20;0.30;;;19.00;60.30;;;;;;5074285;28;20051;-64
2023/01/16 01:24:23;;;;;;;1.90;0.35;;;19.00;60.30;;;;;;5074205;28;20036;-64
2023/01/16 01:26:49;;;;;;;1.52;0.50;;;19.00;60.40;;;;;;5073088;28;20136;-64
2023/01/16 01:29:14;;;;;;;2.72;0.50;;;19.00;60.30;;;;;;5073858;28;20185;-64
2023/01/16 01:31:40;;;;;;;0.98;0.40;;;19.00;60.40;;;;;;5068737;28;20089;-64
2023/01/16 01:34:05;;;;;;;1.40;0.50;;;19.00;60.30;;;;;;5073103;28;20048;-64
2023/01/16 01:36:31;;;;;;;1.45;0.45;;;19.00;60.40;;;;;;5074006;28;20131;-64
2023/01/16 01:38:56;;;;;;;2.17;0.50;;;19.00;60.40;;;;;;5073914;28;20064;-64
2023/01/16 01:41:22;;;;;;;1.70;0.40;;;19.00;60.30;;;;;;5072756;28;20044;-64
2023/01/16 01:43:50;;;;;;;2.83;0.47;;;19.00;60.40;;;;;;5072386;28;20048;-64
2023/01/16 01:46:20;;;;;;;2.03;0.40;;;19.00;60.30;;;;;;5073379;28;20744;-64
2023/01/16 01:48:46;;;;;;;2.03;0.52;;;19.00;60.40;;;;;;5072676;28;20109;-64
2023/01/16 01:51:33;;;;;;;1.58;0.40;;;19.00;60.40;;;;;;5072167;28;20048;-64
2023/01/16 01:54:07;;;;;;;2.13;0.50;;;18.90;60.30;;;;;;5072219;28;20056;-64
2023/01/16 01:56:36;;;;;;;2.45;0.45;;;19.00;60.30;;;;;;5072934;28;20051;-64
2023/01/16 01:59:06;;;;;;;1.38;0.40;;;18.90;60.30;;;;;;5073295;28;20396;-64
2023/01/16 02:01:31;;;;;;;3.03;0.47;;;18.90;60.30;;;;;;5072297;28;20464;-64
2023/01/16 02:03:59;;;;;;;1.20;0.40;;;19.00;60.30;;;;;;5073558;28;20519;-64
2023/01/16 02:06:57;;;;;;;3.20;0.50;;;18.90;60.20;;;;;;5072956;28;20116;-64
2023/01/16 02:09:23;;;;;;;1.17;0.50;;;18.90;60.20;;;;;;5059629;28;20472;-65
2023/01/16 02:11:53;;;;;;;1.73;0.50;;;18.90;60.20;;;;;;5073279;28;20102;-64
2023/01/16 02:14:18;;;;;;;1.70;0.60;;;18.90;60.20;;;;;;5072432;28;20133;-64
2023/01/16 02:19:41;;;;;;;0.90;0.40;;;19.00;60.20;;;;;;5071960;28;20146;-64
2023/01/16 02:22:26;;;;;;;0.75;0.30;;;19.00;60.20;;;;;;5071288;28;20045;-64
2023/01/16 02:24:51;;;;;;;1.23;0.30;;;19.00;60.20;;;;;;5073025;28;20105;-64
2023/01/16 02:27:23;;;;;;;1.50;0.30;;;19.00;60.20;;;;;;5055506;28;20051;-64
2023/01/16 02:30:21;;;;;;;0.63;0.40;;;19.00;60.20;;;;;;5050871;28;20126;-64
2023/01/16 02:32:55;;;;;;;1.08;0.40;;;19.00;60.20;;;;;;5043648;28;20049;-64
2023/01/16 02:35:36;;;;;;;1.35;0.30;;;19.00;60.20;;;;;;5047463;28;20037;-64
2023/01/16 02:38:18;;;;;;;1.83;0.40;;;19.00;60.20;;;;;;5031663;28;20050;-64
2023/01/16 02:40:54;;;;;;;2.70;0.77;;;19.00;60.10;;;;;;5031523;28;20046;-64
2023/01/16 02:43:29;;;;;;;0.85;0.28;;;19.00;60.20;;;;;;5031715;28;20049;-64
2023/01/16 02:46:01;;;;;;;2.35;0.70;;;19.00;60.10;;;;;;5031804;28;20098;-64
2023/01/16 02:48:37;;;;;;;1.10;0.30;;;19.00;60.20;;;;;;5031560;28;20045;-64
2023/01/16 02:51:21;;;;;;;1.48;0.32;;;19.00;60.10;;;;;;5032659;28;20042;-64
2023/01/16 02:54:10;;;;;;;1.10;0.30;;;19.00;60.10;;;;;;5032719;28;20073;-64
2023/01/16 02:57:03;;;;;;;1.42;0.50;;;19.00;60.10;;;;;;5031534;28;20045;-64
2023/01/16 02:59:29;;;;;;;0.50;0.20;;;19.00;60.10;;;;;;5031163;28;20049;-64
2023/01/16 03:01:56;;;;;;;1.48;0.30;;;19.00;60.10;;;;;;5044044;28;20404;-64
2023/01/16 03:04:40;;;;;;;1.13;0.30;;;19.00;60.10;;;;;;5050025;28;20087;-64
2023/01/16 03:07:29;;;;;;;0.77;0.30;;;19.00;60.10;;;;;;5053600;28;20048;-64
2023/01/16 03:10:14;;;;;;;2.10;0.40;;;19.00;60.10;;;;;;5071522;28;20074;-64
2023/01/16 03:12:55;;;;;;;1.42;0.40;;;19.00;60.10;;;;;;5070227;28;20052;-64
2023/01/16 03:15:22;;;;;;;2.30;0.40;;;19.00;60.10;;;;;;5070652;28;20048;-64
2023/01/16 03:18:04;;;;;;;1.48;0.30;;;19.00;60.10;;;;;;5057235;28;20050;-64
2023/01/16 03:20:29;;;;;;;1.30;0.35;;;19.00;60.10;;;;;;5035105;28;20053;-64
2023/01/16 03:23:25;;;;;;;0.93;0.30;;;19.00;60.10;;;;;;5052256;28;20045;-64
2023/01/16 03:25:54;;;;;;;1.30;0.32;;;19.00;60.10;;;;;;5042345;28;20045;-64
2023/01/16 03:28:35;;;;;;;1.40;0.30;;;19.00;60.10;;;;;;5050593;28;20044;-64
2023/01/16 03:31:25;;;;;;;1.30;0.30;;;19.10;60.10;;;;;;5050882;28;20045;-64
2023/01/16 03:33:58;;;;;;;2.50;0.40;;;19.00;60.00;;;;;;5049601;28;20132;-64
2023/01/16 03:36:29;;;;;;;1.50;0.20;;;19.00;60.10;;;;;;5051098;28;20066;-64
2023/01/16 03:38:55;;;;;;;2.70;0.57;;;19.10;60.00;;;;;;5046199;28;20060;-63
2023/01/16 03:41:22;;;;;;;0.68;0.22;;;19.10;60.00;;;;;;5050082;28;20396;-64
2023/01/16 03:43:49;;;;;;;1.02;0.30;;;19.10;60.00;;;;;;5051061;28;20037;-64
2023/01/16 03:46:25;;;;;;;1.38;0.30;;;19.10;60.00;;;;;;5049386;28;20130;-64
2023/01/16 03:48:57;;;;;;;1.23;0.32;;;19.10;60.00;;;;;;5050049;28;20048;-64
2023/01/16 03:51:26;;;;;;;0.85;0.30;;;19.10;60.00;;;;;;5050627;28;20052;-64
2023/01/16 03:54:06;;;;;;;1.90;0.40;;;19.10;60.00;;;;;;5049807;28;20041;-64
2023/01/16 03:56:35;;;;;;;0.60;0.20;;;19.20;60.00;;;;;;5049852;28;20484;-64
2023/01/16 03:59:01;;;;;;;0.82;0.40;;;19.20;60.00;;;;;;5050156;28;20045;-64
2023/01/16 04:01:30;;;;;;;3.20;0.40;;;19.20;60.00;;;;;;5050892;28;20052;-64
2023/01/16 04:04:00;;;;;;;0.52;0.20;;;19.20;60.00;;;;;;5033492;28;20041;-64
2023/01/16 04:06:45;;;;;;;1.27;0.25;;;19.20;59.90;;;;;;5050424;28;20123;-64
2023/01/16 04:09:17;;;;;;;0.82;0.30;;;19.20;59.90;;;;;;5049314;28;20492;-64
2023/01/16 04:11:43;;;;;;;1.75;0.32;;;19.20;59.90;;;;;;5050520;28;20515;-64
2023/01/16 04:14:09;;;;;;;1.02;0.40;;;19.20;59.90;;;;;;5052809;28;20556;-64
2023/01/16 04:16:34;;;;;;;0.65;0.20;;;19.20;59.90;;;;;;5054522;28;20041;-64
2023/01/16 04:19:00;;;;;;;0.80;0.35;;;19.30;59.90;;;;;;5055119;28;20037;-64
2023/01/16 04:21:31;;;;;;;1.70;0.52;;;19.30;59.90;;;;;;5053288;28;20218;-64
2023/01/16 04:23:56;;;;;;;0.90;0.30;;;19.30;59.90;;;;;;5055376;28;20044;-64
2023/01/16 04:26:22;;;;;;;1.23;0.40;;;19.30;59.90;;;;;;5055300;28;20041;-64
2023/01/16 04:28:52;;;;;;;0.55;0.30;;;19.30;59.80;;;;;;5054713;28;20037;-64
2023/01/16 04:31:19;;;;;;;0.22;0.20;;;19.40;59.90;;;;;;5054600;28;20056;-65
2023/01/16 04:33:44;;;;;;;1.33;0.40;;;19.30;59.80;;;;;;5055412;28;20041;-64
2023/01/16 04:36:10;;;;;;;2.17;0.43;;;19.40;59.80;;;;;;5054225;28;20067;-64
2023/01/16 04:38:35;;;;;;;3.13;0.40;;;19.40;59.80;;;;;;5055321;28;20124;-64
2023/01/16 04:41:01;;;;;;;1.00;0.30;;;19.40;59.80;;;;;;5055182;28;20072;-64
2023/01/16 04:43:26;;;;;;;0.98;0.38;;;19.40;59.80;;;;;;5054228;28;20032;-64
2023/01/16 04:45:52;;;;;;;0.50;0.30;;;19.40;59.80;;;;;;5055037;28;20049;-64
2023/01/16 04:48:17;;;;;;;0.98;0.30;;;19.40;59.80;;;;;;5054419;28;20195;-64
2023/01/16 04:50:43;;;;;;;0.40;0.20;;;19.40;59.80;;;;;;5049132;28;20033;-64
2023/01/16 04:53:08;;;;;;;0.98;0.30;;;19.40;59.80;;;;;;5054065;28;20052;-64
2023/01/16 04:55:34;;;;;;;0.93;0.40;;;19.40;59.70;;;;;;5056821;28;20124;-64
2023/01/16 04:57:59;;;;;;;0.80;0.30;;;19.40;59.70;;;;;;5073407;28;20484;-64
2023/01/16 05:00:25;;;;;;;0.70;0.30;;;19.50;59.70;;;;;;5070182;28;20456;-64
2023/01/16 05:02:52;;;;;;;0.80;0.32;;;19.50;59.70;;;;;;5040319;28;20137;-64
2023/01/16 05:05:18;;;;;;;0.95;0.30;;;19.50;59.70;;;;;;5052160;28;20109;-64
2023/01/16 05:07:43;;;;;;;1.50;0.30;;;19.50;59.70;;;;;;5053941;28;20158;-64
2023/01/16 05:10:09;;;;;;;1.45;0.30;;;19.50;59.70;;;;;;5054206;28;20048;-64
2023/01/16 05:12:35;;;;;;;0.55;0.30;;;19.50;59.60;;;;;;5053374;28;20053;-64
2023/01/16 05:15:00;;;;;;;1.05;0.30;;;19.50;59.60;;;;;;5054505;28;20338;-64
2023/01/16 05:17:26;;;;;;;1.83;0.30;;;19.60;59.70;;;;;;5053083;28;20069;-64
2023/01/16 05:19:52;;;;;;;0.50;0.30;;;19.60;59.70;;;;;;5054527;28;20045;-64
2023/01/16 05:22:17;;;;;;;0.35;0.30;;;19.60;59.60;;;;;;5052078;28;20051;-64
2023/01/16 05:24:43;;;;;;;2.25;0.40;;;19.60;59.60;;;;;;5053160;28;20148;-64
2023/01/16 05:27:08;;;;;;;1.58;0.43;;;19.60;59.60;;;;;;5053929;28;20041;-64
2023/01/16 05:29:34;;;;;;;1.58;0.30;;;19.60;59.60;;;;;;5054295;28;20032;-64
2023/01/16 05:32:00;;;;;;;1.35;0.40;;;19.60;59.50;;;;;;5053107;28;20083;-64
2023/01/16 05:34:25;;;;;;;0.70;0.30;;;19.60;60.10;;;;;;5053640;28;20095;-64
2023/01/16 05:36:51;;;;;;;0.65;0.30;;;19.60;59.50;;;;;;5054081;28;20045;-64
2023/01/16 05:39:16;;;;;;;0.65;0.20;;;19.60;59.50;;;;;;5053066;28;20124;-64
2023/01/16 05:41:42;;;;;;;0.45;0.20;;;19.70;59.50;;;;;;5054213;28;20033;-64
2023/01/16 05:44:07;;;;;;;0.98;0.30;;;19.70;59.50;;;;;;5052586;28;20167;-64
2023/01/16 05:46:33;;;;;;;3.03;0.35;;;19.70;59.40;;;;;;5052609;28;20041;-64
2023/01/16 05:48:58;;;;;;;0.75;0.47;;;19.70;59.40;;;;;;5053844;28;20049;-64
2023/01/16 05:51:24;;;;;;;1.05;0.30;;;19.70;59.40;;;;;;5053346;28;20048;-64
2023/01/16 05:53:50;;;;;;;0.77;0.38;;;19.70;59.30;;;;;;5052874;28;20037;-64
2023/01/16 05:56:16;;;;;;;1.33;0.25;;;19.70;59.30;;;;;;5053562;28;20123;-64
2023/01/16 05:58:42;;;;;;;0.50;0.20;;;19.70;59.30;;;;;;5050180;28;20131;-64
2023/01/16 06:01:07;;;;;;;0.75;0.30;;;19.70;59.30;;;;;;5051153;28;20072;-64
2023/01/16 06:03:33;;;;;;;0.30;0.20;;;19.70;59.20;;;;;;5053365;28;20071;-64
2023/01/16 06:06:01;;;;;;;1.00;0.30;;;19.70;59.20;;;;;;5049903;28;20051;-64
2023/01/16 06:08:27;;;;;;;0.63;0.20;;;19.70;59.20;;;;;;5052563;28;20051;-64
2023/01/16 06:10:52;;;;;;;0.63;0.30;;;19.80;59.90;;;;;;5053336;28;20120;-64
2023/01/16 06:13:18;;;;;;;0.73;0.25;;;19.80;59.20;;;;;;5052889;28;20152;-64
2023/01/16 06:15:44;;;;;;;1.05;0.40;;;19.80;59.20;;;;;;5052599;28;20085;-64
2023/01/16 06:18:10;;;;;;;1.63;0.68;;;19.80;59.10;;;;;;5053264;28;20041;-64
2023/01/16 06:20:36;;;;;;;1.30;0.30;;;19.80;59.10;;;;;;5053107;28;20079;-64
2023/01/16 06:23:02;;;;;;;0.30;0.22;;;19.80;59.10;;;;;;5052510;28;20045;-64
2023/01/16 06:25:28;;;;;;;1.77;0.30;;;19.80;59.00;;;;;;5052901;28;20082;-64
2023/01/16 06:27:53;;;;;;;0.60;0.28;;;19.80;59.10;;;;;;5052717;28;20072;-64
2023/01/16 06:30:19;;;;;;;1.00;0.30;;;19.80;59.00;;;;;;5052654;28;20053;-64
2023/01/16 06:32:48;;;;;;;0.75;0.30;;;19.80;59.00;;;;;;5052887;28;20041;-64
2023/01/16 06:35:14;;;;;;;1.02;0.30;;;19.80;59.00;;;;;;5051041;28;20059;-64
2023/01/16 06:37:40;;;;;;;1.42;0.30;;;19.80;59.00;;;;;;5052721;28;20044;-64
2023/01/16 06:40:06;;;;;;;0.80;0.20;;;19.80;59.00;;;;;;5052698;28;20040;-64
2023/01/16 06:42:32;;;;;;;1.17;0.30;;;19.80;59.00;;;;;;5051449;28;20045;-65
2023/01/16 06:44:57;;;;;;;0.73;0.40;;;19.80;58.90;;;;;;5052517;28;20037;-64
2023/01/16 06:47:23;;;;;;;0.50;0.30;;;19.70;58.90;;;;;;5052648;28;20043;-64
2023/01/16 06:49:48;;;;;;;0.70;0.20;;;19.70;58.90;;;;;;5051529;28;20219;-64
2023/01/16 06:52:14;;;;;;;1.17;0.20;;;19.70;58.90;;;;;;5052658;28;20095;-64
2023/01/16 06:54:39;;;;;;;1.27;0.38;;;19.70;58.80;;;;;;5052357;28;20045;-64
2023/01/16 06:57:05;;;;;;;1.13;0.30;;;19.80;58.90;;;;;;5051845;28;20037;-64
2023/01/16 06:59:30;;;;;;;1.50;0.30;;;19.70;58.80;;;;;;5052351;28;20052;-64
2023/01/16 07:01:56;;;;;;;1.15;0.45;;;19.80;58.80;;;;;;5052621;28;20047;-64
2023/01/16 07:04:22;;;;;;;0.45;0.25;;;19.80;58.80;;;;;;5059293;28;20048;-64
2023/01/16 07:06:50;;;;;;;1.55;0.30;;;19.80;58.70;;;;;;5072655;28;20131;-64
2023/01/16 07:09:15;;;;;;;1.20;0.30;;;19.80;58.70;;;;;;5072109;28;20399;-64
2023/01/16 07:11:41;;;;;;;1.65;0.50;;;19.80;58.70;;;;;;5071646;28;20029;-63
2023/01/16 07:22:38;;;;;;;1.13;0.30;;;19.80;58.60;;;;;;5052040;28;20040;-64
2023/01/16 07:25:19;;;;;;;1.38;0.38;;;19.80;58.60;;;;;;5050439;28;20048;-64
2023/01/16 07:27:47;;;;;;;0.52;0.20;;;19.80;58.50;;;;;;5066060;28;20375;-64
2023/01/16 07:30:13;;;;;;;0.68;0.20;;;19.80;58.50;;;;;;5070647;28;20049;-64
2023/01/16 07:32:39;;;;;;;0.30;0.20;;;19.80;58.50;;;;;;5070302;28;20041;-64
2023/01/16 07:35:05;;;;;;;0.88;0.30;;;19.80;58.50;;;;;;5072001;28;20043;-64
2023/01/16 07:37:31;;;;;;;1.20;0.30;;;19.80;58.50;;;;;;5071719;28;20094;-64
2023/01/16 07:39:56;;;;;;;2.15;0.30;;;19.80;58.40;;;;;;5070157;28;20064;-64
2023/01/16 07:42:22;;;;;;;1.13;0.40;;;19.80;58.40;;;;;;5071784;28;20044;-64
2023/01/16 07:44:47;;;;;;;0.75;0.20;;;19.80;58.30;;;;;;5072036;28;20224;-64
2023/01/16 07:47:14;;;;;;;1.23;0.55;;;19.80;58.30;;;;;;5073144;28;20120;-64
2023/01/16 07:49:39;;;;;;;0.77;0.30;;;19.80;58.30;;;;;;5070759;28;20052;-64
2023/01/16 07:52:05;;;;;;;1.33;0.20;;;19.90;58.40;;;;;;5075975;28;20090;-64
2023/01/16 07:54:30;;;;;;;0.47;0.20;;;19.90;58.40;;;;;;5075347;28;20511;-64
2023/01/16 07:56:56;;;;;;;1.70;0.40;;;19.90;58.30;;;;;;5076234;28;20442;-64
2023/01/16 07:59:21;;;;;;;0.38;0.20;;;19.90;58.30;;;;;;5074593;28;20114;-64
2023/01/16 08:01:47;;;;;;;1.15;0.40;;;19.90;58.30;;;;;;5076723;28;20044;-63
2023/01/16 08:04:12;;;;;;;0.75;0.30;;;19.90;58.30;;;;;;5075875;28;20044;-61
2023/01/16 08:06:44;;;;;;;1.50;0.30;;;19.90;58.30;;;;;;5074648;28;20067;-61
2023/01/16 08:09:10;;;;;;;0.82;0.30;;;19.90;58.30;;;;;;5075519;28;20052;-61
2023/01/16 08:11:35;;;;;;;2.53;0.32;;;19.90;58.20;;;;;;5075566;28;20404;-61
2023/01/16 08:14:05;;;;;;;1.50;0.30;;;19.90;58.20;;;;;;5074637;28;20044;-61
2023/01/16 08:16:31;;;;;;;1.95;0.30;;;19.90;58.10;;;;;;5075154;28;20094;-62
2023/01/16 08:18:56;;;;;;;3.03;0.30;;;19.90;58.10;;;;;;5075532;28;20036;-64
2023/01/16 08:21:22;;;;;;;3.75;0.38;;;19.90;58.10;;;;;;5074262;28;20476;-61
2023/01/16 08:23:47;;;;;;;1.42;0.40;;;19.90;58.20;;;;;;5075502;28;20044;-61
2023/01/16 08:26:13;;;;;;;3.22;0.40;;;19.90;58.10;;;;;;5075127;28;20037;-61
2023/01/16 08:28:39;;;;;;;1.48;0.40;;;19.90;58.20;;;;;;5074711;28;20194;-61
2023/01/16 08:31:07;;;;;;;2.85;0.50;;;19.90;58.20;;;;;;5075305;28;20047;-61
2023/01/16 08:33:37;;;;;;;1.88;0.40;;;19.90;58.20;;;;;;5074877;28;20048;-61
2023/01/16 08:36:07;;;;;;;1.70;0.32;;;19.80;58.20;;;;;;5059908;28;20119;-60
2023/01/16 08:38:32;;;;;;;6.25;0.60;;;19.90;58.30;;;;;;5054470;28;20045;-60
2023/01/16 08:40:58;;;;;;;5.40;0.50;;;19.90;58.50;;;;;;5054998;28;20056;-60
2023/01/16 08:51:48;;;;;;;1.60;0.45;;;19.90;58.90;;;;;;5055203;28;20045;-60
2023/01/16 08:54:13;;;;;;;2.17;0.50;;;19.90;59.00;;;;;;5066024;28;20041;-61
2023/01/16 08:56:42;;;;;;;2.15;0.40;;;19.90;59.00;;;;;;5074129;28;20052;-61
2023/01/16 08:59:09;;;;;;;1.17;0.30;;;19.90;59.10;;;;;;5073569;28;20488;-62
2023/01/16 09:01:36;;;;;;;2.47;0.50;;;20.00;59.20;;;;;;5074594;28;20060;-62
2023/01/16 09:04:02;;;;;;;3.35;0.50;;;19.90;59.20;;;;;;5072524;28;20302;-60
2023/01/16 09:06:27;;;;;;;4.82;0.40;;;20.00;59.30;;;;;;5069053;28;20507;-60
2023/01/16 09:08:53;;;;;;;1.23;0.30;;;20.00;59.30;;;;;;5074632;28;20519;-60
2023/01/16 09:14:02;;;;;;;1.33;0.50;;;20.00;59.40;;;;;;5056720;28;20151;-61
2023/01/16 09:16:28;;;;;;;0.68;0.20;;;20.00;59.30;;;;;;5053637;28;20219;-60
2023/01/16 09:18:53;;;;;;;2.78;0.45;;;20.00;59.40;;;;;;5053279;28;20052;-60
2023/01/16 09:21:19;;;;;;;2.25;0.50;;;20.00;59.30;;;;;;5053527;28;20102;-60
2023/01/16 09:23:45;;;;;;;2.58;0.45;;;20.00;59.90;;;;;;5053621;28;20048;-61
2023/01/16 09:26:11;;;;;;;1.08;0.30;;;20.00;59.30;;;;;;5054167;28;20044;-61
2023/01/16 09:28:37;;;;;;;1.77;0.40;;;20.00;59.30;;;;;;5053651;28;20037;-64
2023/01/16 09:31:02;;;;;;;2.05;0.43;;;20.00;59.30;;;;;;5052933;28;20048;-61
2023/01/16 09:33:28;;;;;;;1.08;0.35;;;20.00;59.30;;;;;;5054409;28;20507;-61
2023/01/16 09:35:53;;;;;;;1.35;0.30;;;20.00;59.20;;;;;;5053209;28;20489;-62
2023/01/16 09:38:20;;;;;;;2.10;0.35;;;20.00;59.20;;;;;;5052107;28;20048;-62
2023/01/16 09:40:52;;;;;;;2.15;0.40;;;20.00;59.20;;;;;;5054660;28;20045;-62
2023/01/16 09:43:40;;;;;;;1.75;0.40;;;20.00;59.10;;;;;;5052723;28;20041;-62
2023/01/16 09:46:25;;;;;;;1.88;0.55;;;20.00;59.10;;;;;;5052396;28;20099;-64
2023/01/16 09:49:02;;;;;;;0.75;0.30;;;20.00;59.10;;;;;;5054294;28;20037;-63
2023/01/16 09:51:33;;;;;;;2.30;0.30;;;20.00;59.00;;;;;;5052423;28;20052;-62
2023/01/16 09:59:39;;;;;;;2.03;0.30;;;20.00;59.60;;;;;;5041091;28;20041;-61
2023/01/16 10:02:20;;;;;;;1.60;0.30;;;20.00;58.90;;;;;;5053100;28;20032;-61
2023/01/16 10:04:46;;;;;;;2.60;0.30;;;20.00;58.80;;;;;;5045795;28;20041;-61
2023/01/16 10:07:27;;;;;;;1.73;0.40;;;20.00;58.80;;;;;;5033074;28;20049;-59
2023/01/16 10:10:26;;;;;;;2.85;0.40;;;20.00;58.90;;;;;;5034663;28;20493;-60
2023/01/16 10:13:26;;;;;;;1.60;0.35;;;20.00;59.00;;;;;;5039806;28;20049;-61
2023/01/16 10:16:04;;;;;;;1.42;0.35;;;20.00;59.20;;;;;;5051577;28;20049;-62
2023/01/16 10:18:42;;;;;;;2.40;0.40;;;20.00;59.20;;;;;;5052938;28;20041;-61
2023/01/16 10:21:15;;;;;;;;;;;20.00;59.40;;;;;;5051823;28;20053;-61
2023/01/16 10:23:59;;;;;;;1.27;0.50;;;20.00;59.40;;;;;;5052204;28;19933;-62
2023/01/16 10:26:35;;;;;;;1.67;0.38;;;20.00;59.40;;;;;;5052990;28;20068;-61
2023/01/16 10:29:28;;;;;;;3.65;0.30;;;20.00;59.40;;;;;;5051564;28;20037;-61
2023/01/16 10:31:59;;;;;;;3.80;0.40;;;20.00;59.40;;;;;;5068264;28;20381;-61
2023/01/16 10:34:28;;;;;;;1.77;0.40;;;20.00;59.40;;;;;;5051956;28;20052;-61
2023/01/16 10:36:57;;;;;;;3.83;0.40;;;20.00;59.40;;;;;;5052922;28;20067;-61
2023/01/16 10:39:22;;;;;;;2.45;0.30;;;20.00;59.50;;;;;;5052754;28;20076;-61
2023/01/16 10:50:11;;;;;;;1.42;1.10;;;20.00;59.80;;;;;;5050824;28;20049;-61
2023/01/16 10:52:37;;;;;;;1.95;0.32;;;20.00;59.70;;;;;;5051370;28;20041;-61
2023/01/16 10:55:02;;;;;;;0.82;0.30;;;20.00;59.70;;;;;;5050588;28;20049;-59
2023/01/16 10:57:28;;;;;;;1.50;0.30;;;20.10;59.80;;;;;;5051061;28;20429;-59
2023/01/16 11:00:13;;;;;;;2.17;0.40;;;20.00;59.70;;;;;;5052346;28;20041;-58
2023/01/16 11:02:43;;;;;;;2.80;0.32;;;20.10;59.70;;;;;;5046208;28;20157;-59
2023/01/16 11:05:32;;;;;;;1.83;0.40;;;20.10;59.70;;;;;;5052914;28;20040;-58
2023/01/16 11:08:18;;;;;;;2.30;0.40;;;20.10;59.60;;;;;;5052861;28;20048;-59
2023/01/16 11:10:45;;;;;;;2.97;0.32;;;20.00;59.50;;;;;;5047803;28;20120;-58
2023/01/16 11:19:20;;;;;;;1.83;0.50;;;20.10;59.70;;;;;;5051157;28;20053;-61
2023/01/16 11:21:51;;;;;;;2.38;0.30;;;20.10;59.70;;;;;;5051782;28;20056;-60
2023/01/16 11:24:19;;;;;;;1.63;0.50;;;20.10;59.60;;;;;;5051111;28;20124;-60
2023/01/16 11:26:46;;;;;;;;;;;20.00;59.60;;;;;;5052461;28;20427;-59
2023/01/16 11:29:16;;;;;;;3.50;0.50;;;20.00;59.40;;;;;;5050392;28;19974;-59
2023/01/16 11:31:54;;;;;;;1.73;0.57;;;20.00;59.50;;;;;;5049370;28;20116;-61
2023/01/16 11:34:20;;;;;;;1.97;0.50;;;20.00;59.40;;;;;;5050843;28;20090;-61
2023/01/16 11:36:46;;;;;;;1.88;0.95;;;20.00;59.40;;;;;;5051198;28;20053;-61
2023/01/16 11:39:19;;;;;;;3.35;0.60;;;20.00;59.40;;;;;;5051132;28;20051;-61
2023/01/16 11:41:45;;;;;;;3.50;0.50;;;20.00;59.40;;;;;;5051082;28;20087;-61
2023/01/16 11:47:05;;;;;;;2.00;0.50;;;20.00;59.40;;;;;;5051841;28;20080;-62
2023/01/16 11:49:38;;;;;;;2.47;0.40;;;20.00;59.40;;;;;;5050006;28;20068;-61
2023/01/16 11:52:04;;;;;;;8.50;0.63;;;20.00;59.50;;;;;;5049912;28;20048;-62
2023/01/16 11:54:32;;;;;;;7.63;0.65;;;20.00;59.60;;;;;;5051397;28;20108;-62
2023/01/16 11:57:05;;;;;;;6.72;0.90;;;20.00;59.60;;;;;;5050921;28;20073;-61
2023/01/16 11:59:49;;;;;;;8.55;0.93;;;19.90;59.60;;;;;;5049694;28;20053;-61
2023/01/16 12:02:45;;;;;;;10.73;1.42;;;20.00;59.60;;;;;;5050311;28;20037;-63
2023/01/16 12:08:31;;;;;;;10.32;1.48;;;20.00;59.50;;;;;;5051705;28;20041;-60
2023/01/16 12:10:59;;;;;;;9.50;1.65;;;20.00;59.50;;;;;;5050553;28;20041;-59
2023/01/16 12:17:05;;;;;;;10.73;1.77;;;19.90;59.10;;;;;;5028993;28;20049;-62
2023/01/16 12:19:45;;;;;;;6.60;2.03;;;19.90;58.90;;;;;;5049996;28;20056;-61
2023/01/16 12:22:20;;;;;;;9.77;1.50;;;19.90;58.90;;;;;;5050424;28;20052;-61
2023/01/16 12:24:51;;;;;;;7.18;1.85;;;19.90;58.60;;;;;;5051448;28;20041;-60
2023/01/16 12:27:35;;;;;;;8.50;1.60;;;20.00;59.30;;;;;;5049517;28;20103;-61
2023/01/16 12:30:20;;;;;;;8.23;1.73;;;20.00;58.70;;;;;;5051044;28;20076;-61
2023/01/16 12:33:11;;;;;;;6.60;1.48;;;20.00;58.70;;;;;;5051675;28;20049;-61
2023/01/16 12:36:02;;;;;;;7.97;1.50;;;20.00;58.80;;;;;;5054376;28;20052;-61
2023/01/16 12:38:55;;;;;;;6.15;1.40;;;20.00;59.00;;;;;;5054770;28;20051;-61
2023/01/16 12:44:28;;;;;;;5.80;1.20;;;20.00;59.00;;;;;;5054280;28;20049;-60
2023/01/16 12:47:07;;;;;;;9.75;1.48;;;20.00;59.10;;;;;;5053615;28;20491;-61
2023/01/16 12:50:04;;;;;;;8.43;1.42;;;20.00;59.80;;;;;;5052830;28;20511;-60
2023/01/16 12:52:52;;;;;;;5.30;1.60;;;20.00;59.20;;;;;;5054263;28;20099;-61
2023/01/16 12:56:05;;;;;;;6.15;1.58;;;20.10;59.30;;;;;;5049820;28;20045;-60
2023/01/16 12:58:32;;;;;;;4.65;1.10;;;20.10;59.30;;;;;;5031648;28;20192;-65
2023/01/16 13:01:15;;;;;;;3.03;0.95;;;20.10;60.00;;;;;;5033174;28;20505;-60
2023/01/16 13:03:47;;;;;;;8.45;1.40;;;20.10;59.10;;;;;;5038753;28;20056;-60
2023/01/16 13:06:28;;;;;;;5.00;1.25;;;20.10;59.00;;;;;;5054309;28;20080;-60
2023/01/16 13:09:00;;;;;;;6.53;1.30;;;20.10;58.90;;;;;;5052873;28;20092;-56
2023/01/16 13:14:18;;;;;;;4.25;1.42;;;20.10;58.70;;;;;;5051578;28;20679;-58
2023/01/16 13:16:59;;;;;;;3.85;0.93;;;20.10;58.70;;;;;;5052210;28;20076;-57
2023/01/16 13:19:26;;;;;;;9.98;1.73;;;20.10;58.70;;;;;;5047495;28;20412;-63
2023/01/16 13:22:11;;;;;;;7.88;1.15;;;20.10;58.90;;;;;;5053263;28;20081;-65
2023/01/16 13:24:42;;;;;;;7.05;1.90;;;20.10;58.90;;;;;;5052558;28;20048;-65
2023/01/16 13:27:11;;;;;;;6.65;1.88;;;20.10;58.80;;;;;;5053126;28;20051;-65
2023/01/16 13:29:41;;;;;;;7.43;1.27;;;20.10;58.70;;;;;;5053090;28;20049;-65
2023/01/16 13:32:24;;;;;;;4.72;1.20;;;20.10;58.70;;;;;;5052861;28;20037;-65
2023/01/16 13:34:53;;;;;;;5.95;1.20;;;20.10;58.70;;;;;;5070783;28;20044;-65
2023/01/16 13:37:37;;;;;;;4.38;1.20;;;20.10;58.70;;;;;;5071464;28;20416;-65
2023/01/16 13:40:22;;;;;;;6.28;1.63;;;20.10;58.60;;;;;;5072707;28;20079;-65
2023/01/16 13:45:53;;;;;;;5.15;1.65;;;20.10;58.40;;;;;;5071918;28;20052;-65
2023/01/16 13:48:26;;;;;;;5.63;1.30;;;20.20;58.50;;;;;;5072536;28;20045;-65
2023/01/16 13:51:02;;;;;;;7.80;1.20;;;20.10;58.50;;;;;;5071886;28;20040;-65
2023/01/16 13:53:29;;;;;;;4.75;1.27;;;20.10;58.60;;;;;;5072606;28;20040;-63
2023/01/16 13:56:12;;;;;;;2.75;1.58;;;20.10;58.70;;;;;;5072682;28;20115;-65
2023/01/16 13:58:45;;;;;;;2.97;0.90;;;20.10;58.70;;;;;;5057272;28;20053;-65
2023/01/16 14:01:39;;;;;;;4.80;1.00;;;20.10;59.40;;;;;;5051753;28;20049;-65
2023/01/16 14:04:24;;;;;;;4.80;1.00;;;20.20;59.40;;;;;;5053594;28;20041;-65
2023/01/16 14:09:57;;;;;;;7.03;0.80;;;20.20;58.70;;;;;;5050933;28;20044;-65